Time;durP1;ratioP1;P1;durP2;ratioP2;P2;SDS_P1;SDS_P2;PMS_P1;PMS_P2;Temp;Humidity;BMP_temperature;BMP_pressure;BME280_temperature;BME280_humidity;BME280_pressure;Samples;Min_cycle;Max_cycle;Signal;HPM_P1;HPM_P2
2023/07/27 00:00:11;;;;;;;7.60;3.13;;;13.20;99.90;;;;;;4962372;28;20228;-80
2023/07/27 00:02:37;;;;;;;4.23;2.67;;;13.20;99.90;;;;;;4946566;28;20284;-81
2023/07/27 00:05:03;;;;;;;4.77;2.80;;;13.20;99.90;;;;;;4963054;28;20278;-80
2023/07/27 00:07:30;;;;;;;4.77;2.30;;;13.20;99.90;;;;;;4963431;28;20221;-80
2023/07/27 00:09:55;;;;;;;3.77;3.30;;;13.30;99.90;;;;;;4970121;28;20288;-80
2023/07/27 00:12:21;;;;;;;6.83;2.50;;;13.30;99.90;;;;;;4961525;28;20204;-80
2023/07/27 00:14:48;;;;;;;7.07;2.53;;;13.30;99.90;;;;;;4947117;28;20197;-80
2023/07/27 00:17:14;;;;;;;3.17;2.20;;;13.30;99.90;;;;;;4962179;28;20773;-80
2023/07/27 00:19:40;;;;;;;6.40;2.83;;;13.30;99.90;;;;;;4962532;28;20284;-80
2023/07/27 00:22:06;;;;;;;5.67;2.67;;;13.30;99.90;;;;;;4964281;28;20221;-80
2023/07/27 00:24:31;;;;;;;4.07;2.80;;;13.30;99.90;;;;;;4963223;28;20220;-80
2023/07/27 00:26:57;;;;;;;3.77;2.63;;;13.30;99.90;;;;;;4962042;28;20673;-81
2023/07/27 00:29:23;;;;;;;3.83;2.43;;;13.30;99.90;;;;;;4962020;28;20221;-80
2023/07/27 00:31:50;;;;;;;3.20;2.50;;;13.20;99.90;;;;;;4961542;28;20780;-80
2023/07/27 00:34:16;;;;;;;5.83;3.63;;;13.20;99.90;;;;;;4950118;28;21411;-80
2023/07/27 00:36:42;;;;;;;6.23;3.23;;;13.20;99.90;;;;;;4963522;28;20619;-80
2023/07/27 00:39:08;;;;;;;3.47;2.30;;;13.20;99.90;;;;;;4961931;28;20184;-79
2023/07/27 00:41:33;;;;;;;4.30;2.77;;;13.20;99.90;;;;;;4946705;28;20681;-80
2023/07/27 00:43:59;;;;;;;8.27;3.57;;;13.20;99.90;;;;;;4961995;28;20224;-80
2023/07/27 00:46:25;;;;;;;7.03;3.77;;;13.30;99.90;;;;;;4961885;28;20647;-80
2023/07/27 00:48:51;;;;;;;4.27;2.43;;;13.30;99.90;;;;;;4960674;28;20247;-80
2023/07/27 00:51:17;;;;;;;9.97;3.17;;;13.30;99.90;;;;;;4969248;28;20290;-80
2023/07/27 00:53:43;;;;;;;5.00;3.73;;;13.20;99.90;;;;;;4962232;28;20204;-80
2023/07/27 00:56:09;;;;;;;4.77;3.43;;;13.20;99.90;;;;;;4965335;28;20717;-80
2023/07/27 00:58:38;;;;;;;6.80;3.57;;;13.20;99.90;;;;;;4964330;28;20299;-80
2023/07/27 01:01:04;;;;;;;14.53;3.07;;;13.20;99.90;;;;;;4963661;28;20228;-80
2023/07/27 01:03:30;;;;;;;5.47;2.47;;;13.20;99.90;;;;;;4961726;28;20865;-80
2023/07/27 01:05:56;;;;;;;8.40;3.40;;;13.20;99.90;;;;;;4967177;28;20189;-80
2023/07/27 01:08:22;;;;;;;3.67;2.43;;;13.20;99.90;;;;;;4964809;28;20232;-80
2023/07/27 01:11:32;;;;;;;6.30;3.50;;;13.20;99.90;;;;;;4959277;28;20220;-80
2023/07/27 01:14:05;;;;;;;5.00;3.70;;;13.20;99.90;;;;;;4933122;28;20634;-80
2023/07/27 01:16:54;;;;;;;6.80;3.33;;;13.30;99.90;;;;;;4962043;28;20217;-81
2023/07/27 01:19:39;;;;;;;4.57;3.57;;;13.20;99.90;;;;;;4967732;28;20339;-80
2023/07/27 01:22:28;;;;;;;9.30;3.53;;;13.20;99.90;;;;;;4963026;28;20220;-80
2023/07/27 01:25:17;;;;;;;4.43;2.90;;;13.20;99.90;;;;;;4963359;28;20760;-80
2023/07/27 01:27:46;;;;;;;13.03;3.80;;;13.20;99.90;;;;;;4961880;28;20220;-80
2023/07/27 01:30:27;;;;;;;5.43;3.03;;;13.20;99.90;;;;;;4962626;28;20193;-80
2023/07/27 01:33:00;;;;;;;4.93;2.53;;;13.20;99.90;;;;;;4964351;28;20211;-80
2023/07/27 01:35:43;;;;;;;7.13;4.23;;;13.20;99.90;;;;;;4961758;28;20303;-80
2023/07/27 01:38:09;;;;;;;4.00;2.70;;;13.20;99.90;;;;;;4962366;28;21003;-80
2023/07/27 01:40:37;;;;;;;6.80;3.37;;;13.10;99.90;;;;;;4960036;28;20335;-80
2023/07/27 01:43:03;;;;;;;5.07;2.67;;;13.10;99.90;;;;;;4960190;28;20706;-80
2023/07/27 01:45:32;;;;;;;4.10;2.83;;;13.10;99.90;;;;;;4961704;28;20247;-80
2023/07/27 01:47:59;;;;;;;5.73;2.90;;;13.20;99.90;;;;;;4961564;28;20233;-80
2023/07/27 01:50:25;;;;;;;5.53;3.43;;;13.20;99.90;;;;;;4961300;28;20287;-80
2023/07/27 01:52:53;;;;;;;8.77;3.03;;;13.20;99.90;;;;;;4944361;28;20235;-80
2023/07/27 01:55:22;;;;;;;5.83;2.97;;;13.30;99.90;;;;;;4963466;28;20315;-80
2023/07/27 01:57:50;;;;;;;3.33;2.70;;;13.30;99.90;;;;;;4944406;28;20255;-81
2023/07/27 02:00:16;;;;;;;5.53;3.07;;;13.30;99.90;;;;;;4961443;28;20642;-80
2023/07/27 02:02:43;;;;;;;5.07;3.47;;;13.40;99.90;;;;;;4944617;28;20283;-80
2023/07/27 02:05:10;;;;;;;4.20;2.80;;;13.40;99.90;;;;;;4960554;28;20224;-81
2023/07/27 02:07:36;;;;;;;4.97;2.60;;;13.40;99.90;;;;;;4965430;28;20235;-81
2023/07/27 02:10:02;;;;;;;5.57;3.47;;;13.40;99.90;;;;;;4946409;28;20271;-81
2023/07/27 02:12:34;;;;;;;4.43;2.57;;;13.40;99.90;;;;;;4960739;28;20652;-81
2023/07/27 02:15:10;;;;;;;6.70;3.20;;;13.50;99.90;;;;;;4946917;28;20181;-80
2023/07/27 02:17:44;;;;;;;5.97;3.00;;;13.50;99.90;;;;;;4961853;28;20215;-80
2023/07/27 02:20:13;;;;;;;3.87;2.63;;;13.50;99.90;;;;;;4967352;28;20270;-81
2023/07/27 02:22:41;;;;;;;4.37;3.07;;;13.60;99.90;;;;;;4961894;28;20223;-81
2023/07/27 02:25:08;;;;;;;6.37;2.77;;;13.60;99.90;;;;;;4960072;28;20591;-81
2023/07/27 02:27:33;;;;;;;4.27;2.57;;;13.60;99.90;;;;;;4963019;28;20223;-80
2023/07/27 02:30:00;;;;;;;6.40;3.67;;;13.60;99.90;;;;;;4962122;28;20197;-80
2023/07/27 02:32:26;;;;;;;5.53;3.50;;;13.60;99.90;;;;;;4961374;28;20238;-81
2023/07/27 02:34:52;;;;;;;5.13;2.53;;;13.70;99.90;;;;;;4943137;28;20228;-80
2023/07/27 02:37:18;;;;;;;5.07;3.07;;;13.70;99.90;;;;;;4944108;28;20242;-80
2023/07/27 02:39:43;;;;;;;9.23;3.97;;;13.70;99.90;;;;;;4959423;28;20233;-80
2023/07/27 02:42:09;;;;;;;4.37;3.63;;;13.80;99.90;;;;;;4959360;28;20677;-80
2023/07/27 02:44:35;;;;;;;4.93;2.57;;;13.70;99.90;;;;;;4966231;28;20189;-80
2023/07/27 02:47:00;;;;;;;5.47;3.03;;;13.80;99.90;;;;;;4941762;28;20232;-80
2023/07/27 02:49:26;;;;;;;6.50;2.97;;;13.80;99.90;;;;;;4960420;28;20224;-80
2023/07/27 02:51:52;;;;;;;5.33;3.47;;;13.80;99.90;;;;;;4967090;28;20236;-81
2023/07/27 02:54:17;;;;;;;4.20;2.93;;;13.90;99.90;;;;;;4963772;28;20200;-80
2023/07/27 02:56:43;;;;;;;4.33;2.83;;;13.90;99.90;;;;;;4961051;28;20220;-81
2023/07/27 02:59:09;;;;;;;5.67;3.33;;;14.00;99.90;;;;;;4960339;28;20267;-81
2023/07/27 03:01:37;;;;;;;4.90;2.70;;;14.00;99.90;;;;;;4959925;28;20706;-80
2023/07/27 03:04:03;;;;;;;8.20;3.77;;;14.00;99.90;;;;;;4962729;28;20277;-80
2023/07/27 03:06:29;;;;;;;8.33;3.83;;;14.00;99.90;;;;;;4946461;28;20228;-81
2023/07/27 03:08:55;;;;;;;5.37;2.93;;;14.10;99.90;;;;;;4960529;28;20639;-80
2023/07/27 03:11:21;;;;;;;6.40;3.70;;;14.00;99.90;;;;;;4960113;28;20263;-81
2023/07/27 03:13:47;;;;;;;5.77;3.37;;;14.00;99.90;;;;;;4961470;28;20303;-81
2023/07/27 03:16:13;;;;;;;5.80;3.37;;;14.00;99.90;;;;;;4960282;28;20243;-81
2023/07/27 03:18:38;;;;;;;5.37;2.87;;;14.00;99.90;;;;;;4958829;28;20225;-81
2023/07/27 03:21:04;;;;;;;4.33;2.60;;;14.10;99.90;;;;;;4944430;28;20197;-81
2023/07/27 03:23:30;;;;;;;5.53;3.30;;;14.00;99.90;;;;;;4958962;28;20225;-81
2023/07/27 03:25:56;;;;;;;8.23;3.87;;;14.00;99.90;;;;;;4943496;28;20690;-81
2023/07/27 03:28:24;;;;;;;5.33;3.20;;;14.10;99.90;;;;;;4942736;28;20592;-81
2023/07/27 03:30:50;;;;;;;5.40;2.93;;;14.00;99.90;;;;;;4947864;28;21210;-82
2023/07/27 03:33:16;;;;;;;7.13;3.10;;;14.10;99.90;;;;;;4947745;28;20208;-81
2023/07/27 03:35:42;;;;;;;5.83;3.17;;;14.10;99.90;;;;;;4964260;28;20273;-81
2023/07/27 03:38:07;;;;;;;5.87;3.37;;;14.10;99.90;;;;;;4962841;28;20604;-81
2023/07/27 03:40:33;;;;;;;4.93;2.83;;;14.10;99.90;;;;;;4962596;28;20232;-81
2023/07/27 03:42:59;;;;;;;6.67;3.57;;;14.00;99.90;;;;;;4962556;28;20225;-81
2023/07/27 03:45:25;;;;;;;4.97;3.27;;;14.00;99.90;;;;;;4946935;28;20193;-81
2023/07/27 03:47:50;;;;;;;7.23;3.93;;;14.00;99.90;;;;;;4962802;28;20239;-81
2023/07/27 03:50:16;;;;;;;3.70;2.67;;;14.00;99.90;;;;;;4962084;28;20295;-81
2023/07/27 03:52:42;;;;;;;5.90;3.50;;;14.10;99.90;;;;;;4946626;28;20251;-81
2023/07/27 03:55:08;;;;;;;6.00;3.13;;;14.10;99.90;;;;;;4962766;28;20300;-81
2023/07/27 03:57:34;;;;;;;7.47;3.53;;;14.20;99.90;;;;;;4949029;28;20259;-81
2023/07/27 04:00:00;;;;;;;10.43;3.97;;;14.30;99.90;;;;;;4970327;28;20188;-80
2023/07/27 04:02:27;;;;;;;8.03;3.53;;;14.30;99.90;;;;;;4963915;28;20216;-81
2023/07/27 04:04:53;;;;;;;6.60;4.20;;;14.40;99.90;;;;;;4964958;28;20304;-81
2023/07/27 04:07:20;;;;;;;5.37;3.30;;;14.40;99.90;;;;;;4948653;28;20221;-81
2023/07/27 04:09:46;;;;;;;9.13;4.20;;;14.40;99.90;;;;;;4965439;28;20303;-82
2023/07/27 04:12:12;;;;;;;6.10;3.63;;;14.50;99.90;;;;;;4961443;28;21327;-81
2023/07/27 04:14:38;;;;;;;7.07;4.03;;;14.40;99.90;;;;;;4965693;28;20193;-82
2023/07/27 04:17:04;;;;;;;7.43;3.10;;;14.40;99.90;;;;;;4964581;28;20217;-82
2023/07/27 04:19:30;;;;;;;9.03;3.80;;;14.40;99.90;;;;;;4966634;28;20255;-82
2023/07/27 04:21:56;;;;;;;4.70;3.00;;;14.40;99.90;;;;;;4961719;28;20338;-82
2023/07/27 04:24:22;;;;;;;6.77;3.93;;;14.40;99.90;;;;;;4948814;28;21144;-81
2023/07/27 04:26:48;;;;;;;9.80;5.00;;;14.40;99.90;;;;;;4968948;28;20880;-81
2023/07/27 04:29:13;;;;;;;9.93;4.10;;;14.40;99.90;;;;;;4962068;28;20224;-82
2023/07/27 04:31:39;;;;;;;6.73;3.97;;;14.40;99.90;;;;;;4947232;28;20240;-82
2023/07/27 04:34:05;;;;;;;6.17;3.70;;;14.40;99.90;;;;;;4961478;28;20608;-81
2023/07/27 04:36:30;;;;;;;4.50;3.00;;;14.40;99.90;;;;;;4945592;28;20748;-81
2023/07/27 04:38:56;;;;;;;8.63;4.17;;;14.40;99.90;;;;;;4963715;28;20193;-81
2023/07/27 04:41:22;;;;;;;4.97;3.37;;;14.40;99.90;;;;;;4952110;28;20251;-82
2023/07/27 04:43:48;;;;;;;6.93;4.13;;;14.40;99.90;;;;;;4959739;28;20279;-82
2023/07/27 04:46:14;;;;;;;6.30;3.50;;;14.50;99.90;;;;;;4963772;28;20228;-81
2023/07/27 04:48:40;;;;;;;6.20;4.33;;;14.50;99.90;;;;;;4961198;28;20239;-81
2023/07/27 04:51:06;;;;;;;9.07;3.67;;;14.50;99.90;;;;;;4962473;28;21165;-81
2023/07/27 04:53:31;;;;;;;10.33;4.53;;;14.50;99.90;;;;;;4961621;28;20228;-82
2023/07/27 04:55:57;;;;;;;8.40;4.10;;;14.50;99.90;;;;;;4961740;28;20250;-81
2023/07/27 04:58:23;;;;;;;8.27;4.20;;;14.50;99.90;;;;;;4962048;28;20224;-82
2023/07/27 05:00:53;;;;;;;7.00;3.93;;;14.50;99.90;;;;;;4929474;28;20220;-81
2023/07/27 05:03:19;;;;;;;5.87;3.53;;;14.50;99.90;;;;;;4965471;28;20185;-81
2023/07/27 05:05:45;;;;;;;6.73;4.10;;;14.60;99.90;;;;;;4946115;28;20648;-82
2023/07/27 05:08:11;;;;;;;6.10;3.23;;;14.60;99.90;;;;;;4945823;28;20647;-81
2023/07/27 05:10:40;;;;;;;9.00;5.30;;;14.60;99.90;;;;;;4961304;28;20720;-81
2023/07/27 05:13:07;;;;;;;7.50;5.13;;;14.60;99.90;;;;;;4962259;28;20236;-82
2023/07/27 05:15:33;;;;;;;7.83;4.57;;;14.60;99.90;;;;;;4962500;28;20221;-81
2023/07/27 05:17:58;;;;;;;8.30;4.13;;;14.50;99.90;;;;;;4965835;28;20198;-81
2023/07/27 05:20:24;;;;;;;6.97;4.00;;;14.50;99.90;;;;;;4963615;28;20332;-81
2023/07/27 05:22:50;;;;;;;7.67;4.57;;;14.50;99.90;;;;;;4969616;28;20629;-81
2023/07/27 05:25:18;;;;;;;6.67;4.20;;;14.50;99.90;;;;;;4964409;28;21102;-81
2023/07/27 05:27:44;;;;;;;5.87;4.10;;;14.50;99.90;;;;;;4946107;28;20215;-81
2023/07/27 05:30:10;;;;;;;7.00;3.53;;;14.50;99.90;;;;;;4943621;28;20546;-81
2023/07/27 05:32:37;;;;;;;6.53;4.03;;;14.50;99.90;;;;;;4961315;28;20223;-81
2023/07/27 05:35:03;;;;;;;9.13;4.47;;;14.50;99.90;;;;;;4960845;28;20221;-81
2023/07/27 05:37:29;;;;;;;10.60;4.33;;;14.50;99.90;;;;;;4944520;28;21097;-82
2023/07/27 05:39:54;;;;;;;10.93;4.77;;;14.50;99.90;;;;;;4945588;28;20212;-81
2023/07/27 05:42:20;;;;;;;9.97;4.77;;;14.50;99.90;;;;;;4960354;28;20193;-82
2023/07/27 05:44:46;;;;;;;6.60;3.93;;;14.40;99.90;;;;;;4961869;28;20673;-81
2023/07/27 05:47:13;;;;;;;7.37;4.57;;;14.40;99.90;;;;;;4943883;28;20244;-81
2023/07/27 05:49:39;;;;;;;6.43;3.70;;;14.40;99.90;;;;;;4960961;28;20233;-82
2023/07/27 05:52:06;;;;;;;11.73;5.30;;;14.40;99.90;;;;;;4962790;28;20592;-82
2023/07/27 05:54:32;;;;;;;6.57;3.37;;;14.40;99.90;;;;;;4960039;28;20295;-81
2023/07/27 05:56:57;;;;;;;9.87;4.60;;;14.40;99.90;;;;;;4961427;28;20211;-82
2023/07/27 05:59:23;;;;;;;6.80;3.97;;;14.50;99.90;;;;;;4960153;28;20228;-81
2023/07/27 06:01:49;;;;;;;10.40;5.03;;;14.50;99.90;;;;;;4960520;28;20228;-80
2023/07/27 06:04:16;;;;;;;8.83;3.77;;;14.50;99.90;;;;;;4944233;28;20220;-81
2023/07/27 06:06:45;;;;;;;3.40;3.10;;;14.40;99.90;;;;;;4962387;28;20705;-81
2023/07/27 06:09:10;;;;;;;6.83;3.37;;;14.40;99.90;;;;;;4963719;28;20186;-81
2023/07/27 06:11:37;;;;;;;4.47;3.50;;;14.40;99.90;;;;;;4963009;28;20227;-81
2023/07/27 06:14:03;;;;;;;7.83;3.93;;;14.60;99.90;;;;;;4961849;28;20286;-81
2023/07/27 06:16:28;;;;;;;7.97;3.97;;;14.60;99.90;;;;;;4944319;28;20216;-81
2023/07/27 06:18:54;;;;;;;4.87;3.93;;;14.60;99.90;;;;;;4946456;28;20212;-81
2023/07/27 06:21:20;;;;;;;5.67;3.07;;;14.60;99.90;;;;;;4961998;28;20196;-81
2023/07/27 06:23:46;;;;;;;6.77;4.13;;;14.50;99.90;;;;;;4947516;28;20650;-81
2023/07/27 06:26:11;;;;;;;7.57;3.83;;;14.70;99.90;;;;;;4959393;28;20790;-81
2023/07/27 06:28:37;;;;;;;4.93;3.47;;;14.70;99.90;;;;;;4962852;28;20773;-81
2023/07/27 06:31:03;;;;;;;5.47;3.33;;;14.70;99.90;;;;;;4942485;28;20221;-81
2023/07/27 06:33:28;;;;;;;5.97;3.50;;;14.60;99.90;;;;;;4930768;28;20730;-82
2023/07/27 06:35:54;;;;;;;6.10;3.50;;;14.70;99.90;;;;;;4960679;28;20192;-81
2023/07/27 06:38:20;;;;;;;5.73;3.40;;;14.60;99.90;;;;;;4960443;28;20286;-81
2023/07/27 06:40:46;;;;;;;6.07;4.70;;;14.60;99.90;;;;;;4961530;28;20916;-81
2023/07/27 06:43:12;;;;;;;4.30;3.30;;;14.60;99.90;;;;;;4960577;28;20228;-81
2023/07/27 06:45:38;;;;;;;6.57;3.93;;;14.60;99.90;;;;;;4963609;28;20299;-81
2023/07/27 06:48:04;;;;;;;6.67;2.83;;;14.60;99.90;;;;;;4937652;28;20832;-81
2023/07/27 06:50:30;;;;;;;4.77;2.87;;;14.70;99.90;;;;;;4953701;28;20693;-82
2023/07/27 06:52:55;;;;;;;9.67;4.50;;;14.70;99.90;;;;;;4937736;28;20229;-82
2023/07/27 06:55:21;;;;;;;4.10;3.00;;;14.80;99.90;;;;;;4950652;28;20227;-82
2023/07/27 06:57:47;;;;;;;4.03;2.67;;;14.90;99.90;;;;;;4944605;28;20339;-82
2023/07/27 07:00:13;;;;;;;4.17;3.17;;;14.90;99.90;;;;;;4942901;28;20201;-81
2023/07/27 07:02:39;;;;;;;6.30;3.10;;;15.00;99.90;;;;;;4939493;28;20211;-82
2023/07/27 07:05:05;;;;;;;6.03;3.10;;;15.10;99.90;;;;;;4942334;28;20671;-82
2023/07/27 07:07:31;;;;;;;5.23;2.30;;;15.30;99.90;;;;;;4944812;28;20267;-82
2023/07/27 07:09:57;;;;;;;4.63;3.27;;;15.30;99.90;;;;;;4946950;28;20656;-83
2023/07/27 07:12:23;;;;;;;6.77;3.13;;;15.40;99.90;;;;;;4942244;28;20223;-81
2023/07/27 07:14:48;;;;;;;5.17;3.77;;;15.40;99.90;;;;;;4946349;28;21255;-82
2023/07/27 07:17:14;;;;;;;3.80;2.63;;;15.40;99.90;;;;;;4941820;29;20229;-81
2023/07/27 07:19:40;;;;;;;4.47;2.67;;;15.50;99.90;;;;;;4946622;28;20231;-82
2023/07/27 07:22:05;;;;;;;5.03;2.57;;;15.50;99.90;;;;;;4927327;28;20261;-81
2023/07/27 07:24:31;;;;;;;5.27;2.60;;;15.50;99.90;;;;;;4942112;28;20296;-82
2023/07/27 07:26:57;;;;;;;3.17;2.83;;;15.60;99.90;;;;;;4940618;28;20351;-83
2023/07/27 07:29:23;;;;;;;6.03;3.00;;;15.70;99.90;;;;;;4955922;28;20228;-82
2023/07/27 07:31:48;;;;;;;3.80;2.20;;;15.80;99.90;;;;;;4944423;28;20330;-82
2023/07/27 07:34:14;;;;;;;4.27;2.43;;;15.80;99.90;;;;;;4947243;28;20233;-82
2023/07/27 07:36:40;;;;;;;5.83;2.53;;;15.90;99.90;;;;;;4925740;28;20674;-82
2023/07/27 07:39:05;;;;;;;4.63;3.30;;;15.90;99.90;;;;;;4944827;28;20194;-82
2023/07/27 07:41:31;;;;;;;3.50;2.33;;;16.00;99.90;;;;;;4940972;28;20268;-83
2023/07/27 07:43:57;;;;;;;3.83;2.50;;;15.90;99.90;;;;;;4942107;28;20238;-82
2023/07/27 07:46:23;;;;;;;3.13;2.20;;;15.90;99.90;;;;;;4930952;28;20220;-82
2023/07/27 07:48:48;;;;;;;7.73;2.40;;;16.00;99.90;;;;;;4955598;28;20241;-82
2023/07/27 07:51:15;;;;;;;3.77;2.20;;;16.30;99.90;;;;;;4970015;28;20205;-82
2023/07/27 07:53:41;;;;;;;3.67;2.63;;;16.50;99.90;;;;;;4965102;28;20220;-81
2023/07/27 07:56:15;;;;;;;2.47;2.27;;;16.50;99.90;;;;;;4965359;28;20392;-82
2023/07/27 07:58:41;;;;;;;5.47;3.40;;;16.70;99.90;;;;;;4963591;28;20240;-83
2023/07/27 08:01:07;;;;;;;4.03;2.20;;;16.60;99.90;;;;;;4970681;28;21038;-82
2023/07/27 08:03:33;;;;;;;4.73;2.37;;;16.60;99.90;;;;;;4962654;28;20343;-83
2023/07/27 08:05:59;;;;;;;2.40;1.53;;;16.60;99.90;;;;;;4947953;28;21141;-82
2023/07/27 08:08:25;;;;;;;3.00;2.17;;;16.50;99.90;;;;;;4973593;28;20217;-82
2023/07/27 08:10:51;;;;;;;3.10;2.47;;;16.50;99.90;;;;;;4963149;28;20216;-83
2023/07/27 08:13:17;;;;;;;4.37;2.43;;;16.80;99.90;;;;;;4961964;28;20253;-82
2023/07/27 08:15:53;;;;;;;2.50;1.80;;;16.70;99.90;;;;;;4963808;28;20585;-82
2023/07/27 08:18:19;;;;;;;2.63;1.83;;;16.70;99.90;;;;;;4974926;28;21029;-82
2023/07/27 08:20:55;;;;;;;2.23;1.83;;;16.60;99.90;;;;;;4947784;28;20276;-82
2023/07/27 08:23:21;;;;;;;6.20;2.90;;;16.70;99.90;;;;;;4964514;28;20262;-82
2023/07/27 08:25:48;;;;;;;2.00;1.80;;;16.60;99.90;;;;;;4971416;28;20338;-82
2023/07/27 08:28:14;;;;;;;2.80;1.90;;;16.60;99.90;;;;;;4967665;28;20232;-81
2023/07/27 08:30:41;;;;;;;2.97;1.63;;;16.60;99.90;;;;;;4972961;28;20219;-82
2023/07/27 08:33:08;;;;;;;1.40;1.20;;;16.60;99.90;;;;;;4963811;28;20240;-82
2023/07/27 08:35:33;;;;;;;2.07;1.10;;;16.60;99.90;;;;;;4973901;28;20221;-83
2023/07/27 08:37:59;;;;;;;2.00;1.70;;;16.60;99.90;;;;;;4948484;28;20753;-85
2023/07/27 08:40:25;;;;;;;2.67;1.57;;;16.60;99.90;;;;;;4946747;28;20619;-83
2023/07/27 08:42:51;;;;;;;2.40;1.70;;;16.50;99.90;;;;;;4969964;28;20592;-84
2023/07/27 08:45:21;;;;;;;1.60;1.50;;;16.60;99.90;;;;;;4951287;28;20252;-84
2023/07/27 08:47:48;;;;;;;1.10;0.97;;;16.50;99.90;;;;;;4966947;28;20216;-84
2023/07/27 08:50:15;;;;;;;1.90;0.93;;;16.40;99.90;;;;;;4965697;28;20213;-84
2023/07/27 08:52:41;;;;;;;1.30;1.20;;;16.30;99.90;;;;;;4948766;28;20236;-83
2023/07/27 08:55:07;;;;;;;1.23;1.13;;;16.20;99.90;;;;;;4963861;28;20263;-83
2023/07/27 08:57:33;;;;;;;1.30;1.00;;;16.20;99.90;;;;;;4943973;28;20700;-84
2023/07/27 08:59:59;;;;;;;0.83;0.80;;;16.20;99.90;;;;;;4948464;28;20566;-84
2023/07/27 09:02:25;;;;;;;1.50;0.77;;;16.20;99.90;;;;;;4966206;28;20227;-84
2023/07/27 09:04:50;;;;;;;1.53;1.00;;;16.20;99.90;;;;;;4945553;28;20224;-84
2023/07/27 09:07:16;;;;;;;1.30;1.17;;;16.10;99.90;;;;;;4930721;28;20777;-87
2023/07/27 09:09:51;;;;;;;0.97;0.90;;;16.00;99.90;;;;;;4961986;28;20760;-85
2023/07/27 09:12:18;;;;;;;1.13;1.03;;;16.00;99.90;;;;;;4965081;28;20262;-86
2023/07/27 09:14:44;;;;;;;1.53;1.30;;;16.00;99.90;;;;;;4946804;28;20185;-87
2023/07/27 09:17:12;;;;;;;3.27;1.30;;;16.10;99.90;;;;;;4945400;28;20322;-87
2023/07/27 09:19:40;;;;;;;4.40;1.23;;;16.00;99.90;;;;;;4946264;28;20234;-85
2023/07/27 09:22:06;;;;;;;1.10;1.00;;;16.10;99.90;;;;;;4965709;28;20311;-84
2023/07/27 09:24:33;;;;;;;0.90;0.90;;;16.00;99.90;;;;;;4947484;28;20224;-85
2023/07/27 09:27:01;;;;;;;1.37;1.27;;;16.00;99.90;;;;;;4963514;28;20271;-85
2023/07/27 09:29:30;;;;;;;1.60;1.50;;;16.10;99.90;;;;;;4964772;28;20636;-85
2023/07/27 09:32:00;;;;;;;0.70;0.70;;;16.10;99.90;;;;;;4945936;28;20228;-85
2023/07/27 09:34:29;;;;;;;1.33;1.13;;;16.10;99.90;;;;;;4967230;28;20311;-86
2023/07/27 09:37:08;;;;;;;2.47;1.83;;;16.10;99.90;;;;;;4953613;28;20236;-84
2023/07/27 09:39:42;;;;;;;1.60;1.50;;;16.10;99.90;;;;;;4948481;28;20231;-85
2023/07/27 09:42:10;;;;;;;2.27;1.77;;;16.10;99.90;;;;;;4973964;28;20200;-84
2023/07/27 09:44:52;;;;;;;1.73;1.23;;;16.20;99.90;;;;;;4966829;28;20304;-87
2023/07/27 09:47:23;;;;;;;1.30;1.17;;;16.20;99.90;;;;;;4949512;28;20220;-85
2023/07/27 09:49:53;;;;;;;2.30;1.53;;;16.10;99.90;;;;;;4948582;28;20553;-87
2023/07/27 09:52:20;;;;;;;1.80;1.70;;;16.20;99.90;;;;;;4961453;28;20232;-87
2023/07/27 09:54:56;;;;;;;2.27;1.57;;;16.30;99.90;;;;;;4959609;28;20233;-85
2023/07/27 09:57:22;;;;;;;1.67;1.50;;;16.20;99.90;;;;;;4964532;28;20220;-85
2023/07/27 09:59:51;;;;;;;1.87;1.50;;;16.30;99.90;;;;;;4967266;28;20188;-84
2023/07/27 10:02:22;;;;;;;1.87;1.77;;;16.30;99.90;;;;;;4955344;28;20353;-84
2023/07/27 10:04:51;;;;;;;2.47;1.97;;;16.40;99.90;;;;;;4964483;28;20334;-86
2023/07/27 10:07:22;;;;;;;1.87;1.77;;;16.50;99.90;;;;;;4962287;28;20243;-83
2023/07/27 10:09:48;;;;;;;2.20;1.60;;;16.50;99.90;;;;;;4945400;28;20709;-84
2023/07/27 10:12:28;;;;;;;2.03;1.93;;;16.60;99.90;;;;;;4977161;28;20219;-85
2023/07/27 10:15:19;;;;;;;2.73;1.67;;;16.60;99.90;;;;;;4974584;28;20212;-84
2023/07/27 10:18:16;;;;;;;2.13;1.93;;;16.60;99.90;;;;;;4955682;28;20225;-86
2023/07/27 10:21:23;;;;;;;2.33;2.13;;;16.60;99.90;;;;;;4972137;28;20216;-84
2023/07/27 10:24:05;;;;;;;2.17;1.80;;;16.50;99.90;;;;;;4972901;28;20360;-84
2023/07/27 10:26:59;;;;;;;2.00;1.83;;;16.50;99.90;;;;;;4970982;28;20231;-85
2023/07/27 10:29:37;;;;;;;1.73;1.60;;;16.50;99.90;;;;;;4974690;28;20260;-85
2023/07/27 10:32:12;;;;;;;1.87;1.77;;;16.60;99.90;;;;;;4946463;28;20299;-85
2023/07/27 10:34:43;;;;;;;1.90;1.60;;;16.60;99.90;;;;;;4961679;28;20231;-85
2023/07/27 10:37:16;;;;;;;2.33;2.07;;;16.60;99.90;;;;;;4919006;28;20220;-85
2023/07/27 10:39:56;;;;;;;3.77;1.60;;;16.60;99.90;;;;;;4946382;28;20231;-84
2023/07/27 10:42:24;;;;;;;3.20;2.47;;;16.70;99.90;;;;;;4946177;28;20255;-84
2023/07/27 10:44:57;;;;;;;2.87;2.67;;;16.70;99.90;;;;;;4963939;28;20215;-84
2023/07/27 10:47:39;;;;;;;3.00;2.07;;;16.70;99.90;;;;;;4958294;28;20224;-84
2023/07/27 10:50:38;;;;;;;3.07;2.03;;;16.80;99.90;;;;;;4942081;28;20603;-86
2023/07/27 10:53:07;;;;;;;2.23;2.03;;;16.90;99.90;;;;;;4928508;28;20229;-85
2023/07/27 10:55:41;;;;;;;4.30;2.67;;;16.90;99.90;;;;;;4954150;28;20263;-85
2023/07/27 10:58:34;;;;;;;3.47;2.37;;;17.00;99.90;;;;;;4950391;28;20726;-85
2023/07/27 11:01:08;;;;;;;4.20;3.10;;;17.00;99.90;;;;;;4953357;28;20232;-85
2023/07/27 11:03:36;;;;;;;2.90;2.27;;;17.10;99.90;;;;;;4943614;28;20222;-85
2023/07/27 11:06:19;;;;;;;3.40;2.70;;;17.20;99.90;;;;;;4936583;28;20186;-84
2023/07/27 11:08:52;;;;;;;4.33;2.93;;;17.10;99.90;;;;;;4932747;28;20217;-84
2023/07/27 11:11:35;;;;;;;3.87;3.40;;;17.20;99.90;;;;;;4934546;28;20230;-84
2023/07/27 11:14:05;;;;;;;3.77;3.23;;;17.30;99.90;;;;;;4935743;28;20226;-84
2023/07/27 11:16:39;;;;;;;4.50;3.00;;;17.30;99.90;;;;;;4953946;28;20239;-84
2023/07/27 11:19:18;;;;;;;5.13;3.23;;;17.40;99.90;;;;;;4934648;28;20341;-85
2023/07/27 11:21:50;;;;;;;4.53;4.07;;;17.50;99.90;;;;;;4949122;28;20232;-85
2023/07/27 11:24:18;;;;;;;4.00;3.17;;;17.60;99.90;;;;;;4933945;28;20190;-84
2023/07/27 11:26:50;;;;;;;4.13;3.23;;;17.70;99.90;;;;;;4954020;28;20630;-84
2023/07/27 11:29:19;;;;;;;4.70;3.40;;;17.80;99.90;;;;;;4936642;28;20228;-85
2023/07/27 11:32:05;;;;;;;4.00;2.80;;;17.90;99.90;;;;;;4947608;28;20296;-84
2023/07/27 11:34:42;;;;;;;4.47;3.27;;;17.90;99.90;;;;;;4933509;28;20288;-85
2023/07/27 11:37:23;;;;;;;6.13;3.60;;;17.90;99.90;;;;;;4935235;28;20229;-84
2023/07/27 11:40:03;;;;;;;;;;;;;;;;;;;;;
2023/07/27 11:42:35;;;;;;;4.53;3.53;;;17.90;99.90;;;;;;4944023;28;20328;-84
2023/07/27 11:45:06;;;;;;;3.53;2.90;;;18.00;99.90;;;;;;4951991;28;20277;-85
2023/07/27 11:47:40;;;;;;;4.77;3.20;;;18.10;99.90;;;;;;4942520;28;20218;-86
2023/07/27 11:50:17;;;;;;;5.17;3.70;;;18.30;99.90;;;;;;4964077;28;20234;-86
2023/07/27 11:52:58;;;;;;;4.37;3.30;;;18.60;99.90;;;;;;4956083;28;20389;-85
2023/07/27 11:55:33;;;;;;;5.57;3.70;;;18.70;99.90;;;;;;4946780;28;20228;-87
2023/07/27 11:58:26;;;;;;;5.07;3.70;;;18.80;99.90;;;;;;4961072;28;20282;-85
2023/07/27 12:01:05;;;;;;;3.80;2.97;;;19.20;99.90;;;;;;4944279;28;20243;-86
2023/07/27 12:03:34;;;;;;;3.77;2.60;;;18.90;99.90;;;;;;4941189;28;20228;-84
2023/07/27 12:06:31;;;;;;;3.13;2.57;;;19.00;99.90;;;;;;4969356;28;20181;-84
2023/07/27 12:09:13;;;;;;;3.90;2.33;;;19.30;99.90;;;;;;4954513;28;20227;-85
2023/07/27 12:11:45;;;;;;;2.50;2.17;;;19.10;99.90;;;;;;4961990;28;20228;-85
2023/07/27 12:14:16;;;;;;;2.80;2.30;;;19.30;99.90;;;;;;4936236;28;20232;-84
2023/07/27 12:16:45;;;;;;;2.10;1.53;;;19.50;99.90;;;;;;4962547;28;20264;-85
2023/07/27 12:19:22;;;;;;;3.03;2.47;;;19.80;99.90;;;;;;4957615;28;20583;-85
2023/07/27 12:21:50;;;;;;;5.93;2.60;;;19.90;99.90;;;;;;4969833;28;20234;-87
2023/07/27 12:24:16;;;;;;;3.80;2.77;;;20.00;99.90;;;;;;4935129;28;20236;-87
2023/07/27 12:26:42;;;;;;;2.37;2.17;;;20.50;99.90;;;;;;4942121;28;20548;-86
2023/07/27 12:29:08;;;;;;;1.53;1.43;;;20.90;99.90;;;;;;4962274;28;20221;-86
2023/07/27 12:31:33;;;;;;;2.10;1.80;;;20.90;99.90;;;;;;4957975;28;21014;-85
2023/07/27 12:33:59;;;;;;;2.50;1.50;;;21.10;99.90;;;;;;4943297;28;20224;-85
2023/07/27 12:36:25;;;;;;;0.80;0.80;;;21.10;99.90;;;;;;4959685;28;21053;-85
2023/07/27 12:38:53;;;;;;;1.20;1.10;;;21.20;99.90;;;;;;4960519;28;20228;-86
2023/07/27 12:41:19;;;;;;;0.70;0.70;;;21.30;99.90;;;;;;4954080;28;20232;-85
2023/07/27 12:43:44;;;;;;;0.70;0.70;;;21.40;99.90;;;;;;4934691;28;20267;-86
2023/07/27 12:46:11;;;;;;;0.97;0.97;;;21.50;99.90;;;;;;4958880;28;20687;-86
2023/07/27 12:48:36;;;;;;;1.03;0.93;;;21.60;99.90;;;;;;4959321;28;20237;-87
2023/07/27 12:51:02;;;;;;;1.83;1.10;;;21.70;99.90;;;;;;4961867;28;20742;-87
2023/07/27 12:53:28;;;;;;;1.50;0.93;;;21.70;99.90;;;;;;4963215;28;21103;-85
2023/07/27 12:55:55;;;;;;;0.80;0.80;;;21.80;99.90;;;;;;4942345;28;21181;-86